Edinburg, Illinois
Current Conditions -  °F | °C
As of 7:55 PM on Friday 21 Nov 2014 (Local Time) from KTAZ Reporting Station
Overcast Overcast  
Wind Chill: 25°   Ceiling: 2100
Heat Index: 34°   Visibility: 10mi
Dew Point: 21°   Wind: 13mph
Humidity: 60%   Direction: 150°SSE
Pressure: 30.28"   Gusts: NA
Location:  39.66°N, 89.39°W
Report Text: KTAZ 220155Z AUTO 15011KT 10SM BKN021 OVC029 01/M06 A3028 RMK AO2
Loading
Personal Weather Stations






























Interactive Weather Map New forecast layout! Learn more

10-Day Weather Forecast

Advertisements
Track Severe Weather on mobile